Time;durP1;ratioP1;P1;durP2;ratioP2;P2;SDS_P1;SDS_P2;PMS_P1;PMS_P2;Temp;Humidity;BMP_temperature;BMP_pressure;BME280_temperature;BME280_humidity;BME280_pressure;Samples;Min_cycle;Max_cycle;Signal;HPM_P1;HPM_P2
2022/11/20 00:01:38;;;;;;;;;;;;;;;;;;1883205;76;20487;-66
2022/11/20 00:04:06;;;;;;;;;;;;;;;;;;1883712;76;20615;-66
2022/11/20 00:06:32;;;;;;;;;;;;;;;;;;1885360;76;20934;-66
2022/11/20 00:08:59;;;;;;;;;;;;;;;;;;1883635;76;20425;-66
2022/11/20 00:11:26;;;;;;;;;;;;;;;;;;1885436;76;20417;-66
2022/11/20 00:13:53;;;;;;;;;;;;;;;;;;1885661;76;20465;-66
2022/11/20 00:16:20;;;;;;;;;;;;;;;;;;1883494;76;20221;-66
2022/11/20 00:18:47;;;;;;;;;;;;;;;;;;1883693;76;20175;-68
2022/11/20 00:21:14;;;;;;;;;;;;;;;;;;1883186;76;20210;-66
2022/11/20 00:23:41;;;;;;;;;;;;;;;;;;1883868;76;20311;-66
2022/11/20 00:26:08;;;;;;;;;;;;;;;;;;1883415;76;20172;-66
2022/11/20 00:28:34;;;;;;;;;;;;;;;;;;1885683;76;20109;-66
2022/11/20 00:31:02;;;;;;;;;;;;;;;;;;1885599;76;20148;-66
2022/11/20 00:33:29;;;;;;;;;;;;;;;;;;1885450;76;20824;-66
2022/11/20 00:35:56;;;;;;;;;;;;;;;;;;1885446;76;20524;-66
2022/11/20 00:38:22;;;;;;;;;;;;;;;;;;1883474;76;20406;-66
2022/11/20 00:40:49;;;;;;;;;;;;;;;;;;1883667;76;20579;-66
2022/11/20 00:43:16;;;;;;;;;;;;;;;;;;1885371;76;20472;-67
2022/11/20 00:45:43;;;;;;;;;;;;;;;;;;1883712;76;20563;-66
2022/11/20 00:48:10;;;;;;;;;;;;;;;;;;1885597;76;20441;-66
2022/11/20 00:50:37;;;;;;;;;;;;;;;;;;1885672;76;20171;-66
2022/11/20 00:53:04;;;;;;;;;;;;;;;;;;1885671;76;20120;-66
2022/11/20 00:55:31;;;;;;;;;;;;;;;;;;1885527;76;20187;-65
2022/11/20 00:57:58;;;;;;;;;;;;;;;;;;1885752;76;20183;-66
2022/11/20 01:00:25;;;;;;;;;;;;;;;;;;1885533;76;20276;-66
2022/11/20 01:02:52;;;;;;;;;;;;;;;;;;1883660;76;20177;-66
2022/11/20 01:05:19;;;;;;;;;;;;;;;;;;1885622;76;20209;-66
2022/11/20 01:07:46;;;;;;;;;;;;;;;;;;1885525;76;20230;-66
2022/11/20 01:10:12;;;;;;;;;;;;;;;;;;1883801;76;20120;-66
2022/11/20 01:12:39;;;;;;;;;;;;;;;;;;1885407;76;20174;-66
2022/11/20 01:15:07;;;;;;;;;;;;;;;;;;1885784;76;20183;-66
2022/11/20 01:17:36;;;;;;;;;;;;;;;;;;1886906;76;20207;-66
2022/11/20 01:20:03;;;;;;;;;;;;;;;;;;1879333;76;20179;-66
2022/11/20 01:22:30;;;;;;;;;;;;;;;;;;1887941;76;20199;-66
2022/11/20 01:24:56;;;;;;;;;;;;;;;;;;1888379;76;20160;-66
2022/11/20 01:27:23;;;;;;;;;;;;;;;;;;1878738;76;20437;-67
2022/11/20 01:29:50;;;;;;;;;;;;;;;;;;1888113;76;20549;-67
2022/11/20 01:32:17;;;;;;;;;;;;;;;;;;1887942;76;20413;-66
2022/11/20 01:37:29;;;;;;;;;;;;;;;;;;1878760;76;20178;-67
2022/11/20 01:39:56;;;;;;;;;;;;;;;;;;1879006;76;20167;-67
2022/11/20 01:45:08;;;;;;;;;;;;;;;;;;1879073;76;20494;-66
2022/11/20 01:47:34;;;;;;;;;;;;;;;;;;1879119;76;20467;-67
2022/11/20 01:50:01;;;;;;;;;;;;;;;;;;1879353;76;20378;-66
2022/11/20 01:52:29;;;;;;;;;;;;;;;;;;1878803;76;20156;-66
2022/11/20 01:54:55;;;;;;;;;;;;;;;;;;1888236;76;20174;-66
2022/11/20 01:57:22;;;;;;;;;;;;;;;;;;1888328;76;20690;-66
2022/11/20 01:59:50;;;;;;;;;;;;;;;;;;1888166;76;20184;-66
2022/11/20 02:02:16;;;;;;;;;;;;;;;;;;1878882;76;20341;-66
2022/11/20 02:04:44;;;;;;;;;;;;;;;;;;1888340;76;20210;-66
2022/11/20 02:07:10;;;;;;;;;;;;;;;;;;1888085;76;20329;-66
2022/11/20 02:09:37;;;;;;;;;;;;;;;;;;1888196;76;20179;-66
2022/11/20 02:12:04;;;;;;;;;;;;;;;;;;1888412;76;20162;-66
2022/11/20 02:14:31;;;;;;;;;;;;;;;;;;1879458;76;20163;-66
2022/11/20 02:16:58;;;;;;;;;;;;;;;;;;1880047;76;20463;-67
2022/11/20 02:19:25;;;;;;;;;;;;;;;;;;1897426;76;20299;-67
2022/11/20 02:21:52;;;;;;;;;;;;;;;;;;1897299;76;20344;-66
2022/11/20 02:24:19;;;;;;;;;;;;;;;;;;1885332;76;20174;-66
2022/11/20 02:26:45;;;;;;;;;;;;;;;;;;1897518;76;20144;-66
2022/11/20 02:29:12;;;;;;;;;;;;;;;;;;1897367;76;20112;-66
2022/11/20 02:31:39;;;;;;;;;;;;;;;;;;1897375;76;20929;-66
2022/11/20 02:34:06;;;;;;;;;;;;;;;;;;1897505;76;20209;-66
2022/11/20 02:36:33;;;;;;;;;;;;;;;;;;1885687;76;20178;-67
2022/11/20 02:39:00;;;;;;;;;;;;;;;;;;1897571;76;20170;-67
2022/11/20 02:41:27;;;;;;;;;;;;;;;;;;1897375;76;20182;-66
2022/11/20 02:43:54;;;;;;;;;;;;;;;;;;1897521;76;20440;-66
2022/11/20 02:46:21;;;;;;;;;;;;;;;;;;1897125;76;20421;-66
2022/11/20 02:48:48;;;;;;;;;;;;;;;;;;1897255;76;20162;-66
2022/11/20 02:51:14;;;;;;;;;;;;;;;;;;1897358;76;20818;-66
2022/11/20 02:53:41;;;;;;;;;;;;;;;;;;1885440;76;20179;-66
2022/11/20 02:56:08;;;;;;;;;;;;;;;;;;1897395;76;20468;-66
2022/11/20 02:58:35;;;;;;;;;;;;;;;;;;1897299;76;20236;-67
2022/11/20 03:01:02;;;;;;;;;;;;;;;;;;1885056;76;20447;-67
2022/11/20 03:03:29;;;;;;;;;;;;;;;;;;1885816;76;20492;-66
2022/11/20 03:05:56;;;;;;;;;;;;;;;;;;1885524;76;20436;-67
2022/11/20 03:08:23;;;;;;;;;;;;;;;;;;1885782;76;20163;-66
2022/11/20 03:10:50;;;;;;;;;;;;;;;;;;1897180;76;20448;-67
2022/11/20 03:13:16;;;;;;;;;;;;;;;;;;1897853;76;20170;-66
2022/11/20 03:15:43;;;;;;;;;;;;;;;;;;1897304;76;20179;-67
2022/11/20 03:18:10;;;;;;;;;;;;;;;;;;1882535;76;20179;-66
2022/11/20 03:20:37;;;;;;;;;;;;;;;;;;1888261;76;20163;-66
2022/11/20 03:23:04;;;;;;;;;;;;;;;;;;1879054;76;20187;-66
2022/11/20 03:25:31;;;;;;;;;;;;;;;;;;1888130;76;20455;-66
2022/11/20 03:27:58;;;;;;;;;;;;;;;;;;1879081;76;20413;-67
2022/11/20 03:30:25;;;;;;;;;;;;;;;;;;1888132;76;20179;-67
2022/11/20 03:32:52;;;;;;;;;;;;;;;;;;1888024;76;20425;-66
2022/11/20 03:35:18;;;;;;;;;;;;;;;;;;1879255;76;20513;-67
2022/11/20 03:37:46;;;;;;;;;;;;;;;;;;1888217;76;20435;-66
2022/11/20 03:40:12;;;;;;;;;;;;;;;;;;1888176;76;20132;-66
2022/11/20 03:42:46;;;;;;;;;;;;;;;;;;1888268;76;20490;-66
2022/11/20 03:45:13;;;;;;;;;;;;;;;;;;1888311;76;20197;-66
2022/11/20 03:47:39;;;;;;;;;;;;;;;;;;1888186;76;20197;-66
2022/11/20 03:50:07;;;;;;;;;;;;;;;;;;1888038;76;20155;-66
2022/11/20 03:52:34;;;;;;;;;;;;;;;;;;1888101;76;20198;-66
2022/11/20 03:55:01;;;;;;;;;;;;;;;;;;1888221;76;20156;-66
2022/11/20 03:57:28;;;;;;;;;;;;;;;;;;1888071;76;20876;-66
2022/11/20 03:59:55;;;;;;;;;;;;;;;;;;1878816;76;20194;-66
2022/11/20 04:02:22;;;;;;;;;;;;;;;;;;1887695;76;20164;-66
2022/11/20 04:04:49;;;;;;;;;;;;;;;;;;1888204;76;20160;-66
2022/11/20 04:07:16;;;;;;;;;;;;;;;;;;1888232;76;20193;-66
2022/11/20 04:09:43;;;;;;;;;;;;;;;;;;1888435;76;20170;-66
2022/11/20 04:12:11;;;;;;;;;;;;;;;;;;1878782;76;20171;-66
2022/11/20 04:14:38;;;;;;;;;;;;;;;;;;1888211;76;20168;-66
2022/11/20 04:17:05;;;;;;;;;;;;;;;;;;1887804;76;20128;-66
2022/11/20 04:19:32;;;;;;;;;;;;;;;;;;1888417;76;20190;-67
2022/11/20 04:21:59;;;;;;;;;;;;;;;;;;1878655;76;20213;-66
2022/11/20 04:24:26;;;;;;;;;;;;;;;;;;1888176;76;20151;-66
2022/11/20 04:26:53;;;;;;;;;;;;;;;;;;1888085;76;20108;-67
2022/11/20 04:29:19;;;;;;;;;;;;;;;;;;1887846;76;20168;-67
2022/11/20 04:31:46;;;;;;;;;;;;;;;;;;1887751;76;20155;-67
2022/11/20 04:34:13;;;;;;;;;;;;;;;;;;1888080;76;20191;-66
2022/11/20 04:36:40;;;;;;;;;;;;;;;;;;1887846;76;20518;-66
2022/11/20 04:39:07;;;;;;;;;;;;;;;;;;1888256;76;20151;-67
2022/11/20 04:41:34;;;;;;;;;;;;;;;;;;1888029;76;20440;-67
2022/11/20 04:44:02;;;;;;;;;;;;;;;;;;1888303;76;20202;-70
2022/11/20 04:46:29;;;;;;;;;;;;;;;;;;1887817;76;20198;-69
2022/11/20 04:48:56;;;;;;;;;;;;;;;;;;1888121;76;20175;-70
2022/11/20 04:51:23;;;;;;;;;;;;;;;;;;1887833;76;20163;-70
2022/11/20 04:53:50;;;;;;;;;;;;;;;;;;1887891;76;20172;-70
2022/11/20 04:56:17;;;;;;;;;;;;;;;;;;1887969;76;20171;-70
2022/11/20 04:58:44;;;;;;;;;;;;;;;;;;1878638;76;20144;-69
2022/11/20 05:01:11;;;;;;;;;;;;;;;;;;1881661;75;446459;-69
2022/11/20 05:03:38;;;;;;;;;;;;;;;;;;1888199;76;20171;-69
2022/11/20 05:06:05;;;;;;;;;;;;;;;;;;1879308;76;20500;-69
2022/11/20 05:08:32;;;;;;;;;;;;;;;;;;1888090;76;20119;-69
2022/11/20 05:10:59;;;;;;;;;;;;;;;;;;1879080;76;20171;-69
2022/11/20 05:13:26;;;;;;;;;;;;;;;;;;1879176;76;20167;-69
2022/11/20 05:15:53;;;;;;;;;;;;;;;;;;1887916;76;20188;-69
2022/11/20 05:18:20;;;;;;;;;;;;;;;;;;1878845;76;20262;-69
2022/11/20 05:20:47;;;;;;;;;;;;;;;;;;1888101;76;20263;-69
2022/11/20 05:23:14;;;;;;;;;;;;;;;;;;1888243;76;20201;-70
2022/11/20 05:25:41;;;;;;;;;;;;;;;;;;1887869;76;20176;-69
2022/11/20 05:28:07;;;;;;;;;;;;;;;;;;1888345;76;20379;-70
2022/11/20 05:30:34;;;;;;;;;;;;;;;;;;1887836;76;20163;-70
2022/11/20 05:33:01;;;;;;;;;;;;;;;;;;1888158;76;20171;-69
2022/11/20 05:35:28;;;;;;;;;;;;;;;;;;1878823;76;20200;-69
2022/11/20 05:37:55;;;;;;;;;;;;;;;;;;1888197;76;20182;-70
2022/11/20 05:40:22;;;;;;;;;;;;;;;;;;1887998;76;20167;-69
2022/11/20 05:42:49;;;;;;;;;;;;;;;;;;1879075;76;20452;-70
2022/11/20 05:45:16;;;;;;;;;;;;;;;;;;1888177;76;20171;-69
2022/11/20 05:47:43;;;;;;;;;;;;;;;;;;1887959;76;20108;-69
2022/11/20 05:50:09;;;;;;;;;;;;;;;;;;1888228;76;20311;-69
2022/11/20 05:52:36;;;;;;;;;;;;;;;;;;1878862;76;20938;-69
2022/11/20 05:55:03;;;;;;;;;;;;;;;;;;1887994;76;20381;-69
2022/11/20 05:57:30;;;;;;;;;;;;;;;;;;1888124;76;20175;-69
2022/11/20 05:59:57;;;;;;;;;;;;;;;;;;1887948;76;20179;-69
2022/11/20 06:02:24;;;;;;;;;;;;;;;;;;1878401;76;20437;-69
2022/11/20 06:04:51;;;;;;;;;;;;;;;;;;1887907;76;20456;-69
2022/11/20 06:07:18;;;;;;;;;;;;;;;;;;1887846;76;20163;-69
2022/11/20 06:09:45;;;;;;;;;;;;;;;;;;1879023;76;20116;-69
2022/11/20 06:12:12;;;;;;;;;;;;;;;;;;1888046;76;20187;-69
2022/11/20 06:14:38;;;;;;;;;;;;;;;;;;1888110;76;20192;-69
2022/11/20 06:17:06;;;;;;;;;;;;;;;;;;1878615;76;20159;-69
2022/11/20 06:19:33;;;;;;;;;;;;;;;;;;1886967;76;20781;-69
2022/11/20 06:22:00;;;;;;;;;;;;;;;;;;1885225;76;20217;-69
2022/11/20 06:24:27;;;;;;;;;;;;;;;;;;1883400;76;20168;-69
2022/11/20 06:26:54;;;;;;;;;;;;;;;;;;1885387;76;20127;-69
2022/11/20 06:29:21;;;;;;;;;;;;;;;;;;1885359;76;20202;-69
2022/11/20 06:31:48;;;;;;;;;;;;;;;;;;1885511;76;20206;-69
2022/11/20 06:34:15;;;;;;;;;;;;;;;;;;1885372;76;20167;-69
2022/11/20 06:36:42;;;;;;;;;;;;;;;;;;1883298;76;20898;-69
2022/11/20 06:39:09;;;;;;;;;;;;;;;;;;1885496;76;20171;-70
2022/11/20 06:41:36;;;;;;;;;;;;;;;;;;1885222;76;20171;-69
2022/11/20 06:44:03;;;;;;;;;;;;;;;;;;1883352;76;20120;-69
2022/11/20 06:46:30;;;;;;;;;;;;;;;;;;1883812;76;20491;-69
2022/11/20 06:48:58;;;;;;;;;;;;;;;;;;1883438;76;20156;-69
2022/11/20 06:51:24;;;;;;;;;;;;;;;;;;1885445;76;20120;-69
2022/11/20 06:53:51;;;;;;;;;;;;;;;;;;1885512;76;20189;-70
2022/11/20 06:56:20;;;;;;;;;;;;;;;;;;1885517;76;20452;-70
2022/11/20 06:58:47;;;;;;;;;;;;;;;;;;1885452;76;20175;-69
2022/11/20 07:01:14;;;;;;;;;;;;;;;;;;1884808;76;20120;-69
2022/11/20 07:03:41;;;;;;;;;;;;;;;;;;1885330;76;20256;-70
2022/11/20 07:06:08;;;;;;;;;;;;;;;;;;1885216;76;20547;-69
2022/11/20 07:08:35;;;;;;;;;;;;;;;;;;1885435;76;20460;-69
2022/11/20 07:11:02;;;;;;;;;;;;;;;;;;1885476;76;20163;-69
2022/11/20 07:13:29;;;;;;;;;;;;;;;;;;1883449;76;20428;-69
2022/11/20 07:15:56;;;;;;;;;;;;;;;;;;1885444;76;20398;-69
2022/11/20 07:18:23;;;;;;;;;;;;;;;;;;1885441;76;20218;-70
2022/11/20 07:20:50;;;;;;;;;;;;;;;;;;1885365;76;20508;-69
2022/11/20 07:23:17;;;;;;;;;;;;;;;;;;1885445;76;20175;-69
2022/11/20 07:25:44;;;;;;;;;;;;;;;;;;1885240;76;20967;-69
2022/11/20 07:28:11;;;;;;;;;;;;;;;;;;1885520;76;20176;-69
2022/11/20 07:30:38;;;;;;;;;;;;;;;;;;1885411;76;20210;-71
2022/11/20 07:33:05;;;;;;;;;;;;;;;;;;1885467;76;20155;-67
2022/11/20 07:35:32;;;;;;;;;;;;;;;;;;1885344;76;20459;-66
2022/11/20 07:37:59;;;;;;;;;;;;;;;;;;1885625;76;20205;-67
2022/11/20 07:40:25;;;;;;;;;;;;;;;;;;1885335;76;20178;-68
2022/11/20 07:42:52;;;;;;;;;;;;;;;;;;1885872;76;20171;-69
2022/11/20 07:45:19;;;;;;;;;;;;;;;;;;1883334;76;20159;-69
2022/11/20 07:47:47;;;;;;;;;;;;;;;;;;1883718;76;20105;-68
2022/11/20 07:50:14;;;;;;;;;;;;;;;;;;1885306;76;20105;-68
2022/11/20 07:52:41;;;;;;;;;;;;;;;;;;1883367;76;20175;-68
2022/11/20 07:55:08;;;;;;;;;;;;;;;;;;1883568;76;20409;-68
2022/11/20 07:57:34;;;;;;;;;;;;;;;;;;1885498;76;20179;-68
2022/11/20 08:00:02;;;;;;;;;;;;;;;;;;1885382;76;20160;-68
2022/11/20 08:02:28;;;;;;;;;;;;;;;;;;1885434;76;20459;-69
2022/11/20 08:04:55;;;;;;;;;;;;;;;;;;1885762;76;20558;-69
2022/11/20 08:07:22;;;;;;;;;;;;;;;;;;1883993;76;20179;-69
2022/11/20 08:09:49;;;;;;;;;;;;;;;;;;1885900;76;20156;-68
2022/11/20 08:15:01;;;;;;;;;;;;;;;;;;1883790;76;20174;-69
2022/11/20 08:17:28;;;;;;;;;;;;;;;;;;1885699;76;20214;-69
2022/11/20 08:19:55;;;;;;;;;;;;;;;;;;1883836;76;20183;-69
2022/11/20 08:22:22;;;;;;;;;;;;;;;;;;1888099;76;20183;-69
2022/11/20 08:24:49;;;;;;;;;;;;;;;;;;1888218;76;20160;-69
2022/11/20 08:27:16;;;;;;;;;;;;;;;;;;1888006;76;20202;-69
2022/11/20 08:29:42;;;;;;;;;;;;;;;;;;1888062;76;20453;-69
2022/11/20 08:32:09;;;;;;;;;;;;;;;;;;1888265;76;20452;-70
2022/11/20 08:34:37;;;;;;;;;;;;;;;;;;1879208;76;20201;-69
2022/11/20 08:37:04;;;;;;;;;;;;;;;;;;1888392;76;20132;-70
2022/11/20 08:39:31;;;;;;;;;;;;;;;;;;1888240;76;20210;-69
2022/11/20 08:41:58;;;;;;;;;;;;;;;;;;1888010;76;20187;-69
2022/11/20 08:44:24;;;;;;;;;;;;;;;;;;1888161;76;20108;-69
2022/11/20 08:46:52;;;;;;;;;;;;;;;;;;1887819;76;20148;-68
2022/11/20 08:49:18;;;;;;;;;;;;;;;;;;1879047;76;20168;-68
2022/11/20 08:51:47;;;;;;;;;;;;;;;;;;1888120;76;20167;-69
2022/11/20 08:54:14;;;;;;;;;;;;;;;;;;1888331;76;20152;-68
2022/11/20 08:56:41;;;;;;;;;;;;;;;;;;1888052;76;20190;-69
2022/11/20 08:59:08;;;;;;;;;;;;;;;;;;1888608;76;20440;-69
2022/11/20 09:01:35;;;;;;;;;;;;;;;;;;1887544;76;20453;-69
2022/11/20 09:04:03;;;;;;;;;;;;;;;;;;1888336;76;20172;-69
2022/11/20 09:06:30;;;;;;;;;;;;;;;;;;1888274;76;20297;-69
2022/11/20 09:08:57;;;;;;;;;;;;;;;;;;1879390;76;20116;-70
2022/11/20 09:11:24;;;;;;;;;;;;;;;;;;1878857;76;20168;-68
2022/11/20 09:13:51;;;;;;;;;;;;;;;;;;1888410;76;20712;-68
2022/11/20 09:16:18;;;;;;;;;;;;;;;;;;1887906;76;20397;-68
2022/11/20 09:18:45;;;;;;;;;;;;;;;;;;1879334;76;20460;-68
2022/11/20 09:21:12;;;;;;;;;;;;;;;;;;1887964;75;20195;-68
2022/11/20 09:23:39;;;;;;;;;;;;;;;;;;1888383;76;20201;-68
2022/11/20 09:26:06;;;;;;;;;;;;;;;;;;1887994;76;20611;-71
2022/11/20 09:28:33;;;;;;;;;;;;;;;;;;1888289;76;20436;-67
2022/11/20 09:31:00;;;;;;;;;;;;;;;;;;1888062;76;20464;-67
2022/11/20 09:33:27;;;;;;;;;;;;;;;;;;1888358;76;20911;-67
2022/11/20 09:35:54;;;;;;;;;;;;;;;;;;1879024;76;20436;-67
2022/11/20 09:38:21;;;;;;;;;;;;;;;;;;1888187;76;20175;-68
2022/11/20 09:40:48;;;;;;;;;;;;;;;;;;1888036;76;20152;-68
2022/11/20 09:43:15;;;;;;;;;;;;;;;;;;1888133;76;20416;-68
2022/11/20 09:45:42;;;;;;;;;;;;;;;;;;1888039;76;20163;-69
2022/11/20 09:48:09;;;;;;;;;;;;;;;;;;1888104;76;20457;-68
2022/11/20 09:50:35;;;;;;;;;;;;;;;;;;1878871;76;20912;-68
2022/11/20 09:53:02;;;;;;;;;;;;;;;;;;1888195;76;20550;-68
2022/11/20 09:55:29;;;;;;;;;;;;;;;;;;1888240;76;20542;-68
2022/11/20 09:57:56;;;;;;;;;;;;;;;;;;1888266;76;20116;-68
2022/11/20 10:00:23;;;;;;;;;;;;;;;;;;1887788;76;20471;-69
2022/11/20 10:02:50;;;;;;;;;;;;;;;;;;1878757;76;20493;-70
2022/11/20 10:05:17;;;;;;;;;;;;;;;;;;1887928;76;20386;-67
2022/11/20 10:07:44;;;;;;;;;;;;;;;;;;1887996;76;20858;-67
2022/11/20 10:10:11;;;;;;;;;;;;;;;;;;1879003;76;20171;-67
2022/11/20 10:12:38;;;;;;;;;;;;;;;;;;1879037;76;20227;-67
2022/11/20 10:15:04;;;;;;;;;;;;;;;;;;1888160;76;20201;-67
2022/11/20 10:17:31;;;;;;;;;;;;;;;;;;1887881;76;20952;-67
2022/11/20 10:19:58;;;;;;;;;;;;;;;;;;1879314;76;20190;-67
2022/11/20 10:22:25;;;;;;;;;;;;;;;;;;1878679;76;20464;-67
2022/11/20 10:24:52;;;;;;;;;;;;;;;;;;1879281;76;20899;-67
2022/11/20 10:27:19;;;;;;;;;;;;;;;;;;1887808;76;20457;-67
2022/11/20 10:29:45;;;;;;;;;;;;;;;;;;1888230;76;20210;-67
2022/11/20 10:32:12;;;;;;;;;;;;;;;;;;1878631;76;20495;-67
2022/11/20 10:34:40;;;;;;;;;;;;;;;;;;1888070;76;20445;-67
2022/11/20 10:37:06;;;;;;;;;;;;;;;;;;1888014;76;20171;-67
2022/11/20 10:39:33;;;;;;;;;;;;;;;;;;1888070;76;20163;-68
2022/11/20 10:42:00;;;;;;;;;;;;;;;;;;1887905;76;20171;-67
2022/11/20 10:47:12;;;;;;;;;;;;;;;;;;1878721;76;20163;-66
2022/11/20 10:49:38;;;;;;;;;;;;;;;;;;1879149;76;20429;-67
2022/11/20 10:52:06;;;;;;;;;;;;;;;;;;1887861;76;20472;-67
2022/11/20 10:54:33;;;;;;;;;;;;;;;;;;1888167;76;20160;-66
2022/11/20 10:57:00;;;;;;;;;;;;;;;;;;1888024;76;20179;-69
2022/11/20 10:59:27;;;;;;;;;;;;;;;;;;1887999;76;20441;-67
2022/11/20 11:01:54;;;;;;;;;;;;;;;;;;1887736;76;20174;-66
2022/11/20 11:04:21;;;;;;;;;;;;;;;;;;1887996;76;20183;-67
2022/11/20 11:06:48;;;;;;;;;;;;;;;;;;1888193;76;20167;-67
2022/11/20 11:09:15;;;;;;;;;;;;;;;;;;1879152;76;20116;-67
2022/11/20 11:11:42;;;;;;;;;;;;;;;;;;1888091;76;20211;-67
2022/11/20 11:14:09;;;;;;;;;;;;;;;;;;1888085;76;20167;-67
2022/11/20 11:16:36;;;;;;;;;;;;;;;;;;1887948;76;20163;-66
2022/11/20 11:19:03;;;;;;;;;;;;;;;;;;1887950;76;20183;-68
2022/11/20 11:21:30;;;;;;;;;;;;;;;;;;1888011;76;20191;-67
2022/11/20 11:23:57;;;;;;;;;;;;;;;;;;1878787;76;20218;-67
2022/11/20 11:26:24;;;;;;;;;;;;;;;;;;1888006;76;20170;-67
2022/11/20 11:28:50;;;;;;;;;;;;;;;;;;1878901;76;20163;-67
2022/11/20 11:31:18;;;;;;;;;;;;;;;;;;1887969;76;20109;-68
2022/11/20 11:33:44;;;;;;;;;;;;;;;;;;1888030;76;20112;-67
2022/11/20 11:36:11;;;;;;;;;;;;;;;;;;1887971;76;20168;-68
2022/11/20 11:38:38;;;;;;;;;;;;;;;;;;1878945;76;20429;-67
2022/11/20 11:41:05;;;;;;;;;;;;;;;;;;1887995;76;20840;-66
2022/11/20 11:46:17;;;;;;;;;;;;;;;;;;1887987;76;20197;-67
2022/11/20 11:48:44;;;;;;;;;;;;;;;;;;1887907;76;20160;-67
2022/11/20 11:51:11;;;;;;;;;;;;;;;;;;1888085;76;20207;-74
2022/11/20 11:53:37;;;;;;;;;;;;;;;;;;1887731;76;20283;-75
2022/11/20 11:56:04;;;;;;;;;;;;;;;;;;1887941;76;20171;-67
2022/11/20 11:58:31;;;;;;;;;;;;;;;;;;1888126;76;20183;-67
2022/11/20 12:00:58;;;;;;;;;;;;;;;;;;1888029;76;20186;-67
2022/11/20 12:03:25;;;;;;;;;;;;;;;;;;1888138;76;20113;-67
2022/11/20 12:05:52;;;;;;;;;;;;;;;;;;1888052;76;20308;-67
2022/11/20 12:08:18;;;;;;;;;;;;;;;;;;1888063;76;20435;-67
2022/11/20 12:10:45;;;;;;;;;;;;;;;;;;1887823;76;20120;-68
2022/11/20 12:13:12;;;;;;;;;;;;;;;;;;1879146;76;20448;-67
2022/11/20 12:15:39;;;;;;;;;;;;;;;;;;1878883;76;20793;-68
2022/11/20 12:18:06;;;;;;;;;;;;;;;;;;1879046;76;20186;-67
2022/11/20 12:20:33;;;;;;;;;;;;;;;;;;1887884;76;20228;-67
2022/11/20 12:23:00;;;;;;;;;;;;;;;;;;1888239;75;20191;-67
2022/11/20 12:25:27;;;;;;;;;;;;;;;;;;1878910;76;20187;-67
2022/11/20 12:27:54;;;;;;;;;;;;;;;;;;1888185;76;20182;-67
2022/11/20 12:30:21;;;;;;;;;;;;;;;;;;1878981;76;20175;-67
2022/11/20 12:32:48;;;;;;;;;;;;;;;;;;1888095;76;20116;-67
2022/11/20 12:35:14;;;;;;;;;;;;;;;;;;1887913;76;20160;-67
2022/11/20 12:37:42;;;;;;;;;;;;;;;;;;1887893;76;20179;-67
2022/11/20 12:40:08;;;;;;;;;;;;;;;;;;1888075;76;20287;-68
2022/11/20 12:45:20;;;;;;;;;;;;;;;;;;1888193;76;20467;-67
2022/11/20 12:47:47;;;;;;;;;;;;;;;;;;1878964;76;20179;-67
2022/11/20 12:50:14;;;;;;;;;;;;;;;;;;1887938;76;20163;-67
2022/11/20 12:52:41;;;;;;;;;;;;;;;;;;1879062;76;20179;-67
2022/11/20 12:55:08;;;;;;;;;;;;;;;;;;1888125;76;20183;-67
2022/11/20 12:57:35;;;;;;;;;;;;;;;;;;1887991;76;20120;-67
2022/11/20 13:00:02;;;;;;;;;;;;;;;;;;1878924;76;20167;-67
2022/11/20 13:02:29;;;;;;;;;;;;;;;;;;1878901;76;20860;-67
2022/11/20 13:04:56;;;;;;;;;;;;;;;;;;1888095;76;20164;-67
2022/11/20 13:07:23;;;;;;;;;;;;;;;;;;1888014;76;20665;-67
2022/11/20 13:09:50;;;;;;;;;;;;;;;;;;1888053;76;20432;-67
2022/11/20 13:12:17;;;;;;;;;;;;;;;;;;1878830;76;20378;-67
2022/11/20 13:14:44;;;;;;;;;;;;;;;;;;1887942;76;20461;-67
2022/11/20 13:17:11;;;;;;;;;;;;;;;;;;1888047;76;20877;-67
2022/11/20 13:19:37;;;;;;;;;;;;;;;;;;1887964;76;20958;-68
2022/11/20 13:22:04;;;;;;;;;;;;;;;;;;1878987;76;20390;-67
2022/11/20 13:24:31;;;;;;;;;;;;;;;;;;1887998;76;20596;-67
2022/11/20 13:26:59;;;;;;;;;;;;;;;;;;1878754;76;20167;-67
2022/11/20 13:29:26;;;;;;;;;;;;;;;;;;1888141;76;20147;-67
2022/11/20 13:31:53;;;;;;;;;;;;;;;;;;1888016;76;20183;-68
2022/11/20 13:34:20;;;;;;;;;;;;;;;;;;1888127;76;20182;-69
2022/11/20 13:36:46;;;;;;;;;;;;;;;;;;1887935;76;20355;-68
2022/11/20 13:39:13;;;;;;;;;;;;;;;;;;1888100;76;20460;-67
2022/11/20 13:41:41;;;;;;;;;;;;;;;;;;1878938;76;20470;-68
2022/11/20 13:44:08;;;;;;;;;;;;;;;;;;1888329;76;20890;-67
2022/11/20 13:46:34;;;;;;;;;;;;;;;;;;1888086;76;20373;-67
2022/11/20 13:49:01;;;;;;;;;;;;;;;;;;1888216;76;20437;-67
2022/11/20 13:51:28;;;;;;;;;;;;;;;;;;1888082;76;20597;-68
2022/11/20 13:53:56;;;;;;;;;;;;;;;;;;1888041;76;20776;-67
2022/11/20 13:56:22;;;;;;;;;;;;;;;;;;1887966;76;20180;-67
2022/11/20 13:58:49;;;;;;;;;;;;;;;;;;1888040;76;20183;-67
2022/11/20 14:01:16;;;;;;;;;;;;;;;;;;1887669;76;20544;-68
2022/11/20 14:03:43;;;;;;;;;;;;;;;;;;1888005;76;20171;-68
2022/11/20 14:06:10;;;;;;;;;;;;;;;;;;1887905;76;20493;-67
2022/11/20 14:08:37;;;;;;;;;;;;;;;;;;1888195;76;20163;-67
2022/11/20 14:11:04;;;;;;;;;;;;;;;;;;1887934;76;20409;-67
2022/11/20 14:13:31;;;;;;;;;;;;;;;;;;1888291;76;20429;-70
2022/11/20 14:15:58;;;;;;;;;;;;;;;;;;1887987;76;20163;-71
2022/11/20 14:18:25;;;;;;;;;;;;;;;;;;1888173;76;20168;-71
2022/11/20 14:20:52;;;;;;;;;;;;;;;;;;1887917;76;20167;-71
2022/11/20 14:23:19;;;;;;;;;;;;;;;;;;1886743;76;20221;-68
2022/11/20 14:25:45;;;;;;;;;;;;;;;;;;1885470;76;20205;-67
2022/11/20 14:28:12;;;;;;;;;;;;;;;;;;1885661;76;20668;-68
2022/11/20 14:30:39;;;;;;;;;;;;;;;;;;1883452;76;20987;-69
2022/11/20 14:33:06;;;;;;;;;;;;;;;;;;1885513;76;20378;-67
2022/11/20 14:35:33;;;;;;;;;;;;;;;;;;1885358;76;20417;-69
2022/11/20 14:38:00;;;;;;;;;;;;;;;;;;1885887;76;20445;-68
2022/11/20 14:40:27;;;;;;;;;;;;;;;;;;1885704;76;20229;-69
2022/11/20 14:42:54;;;;;;;;;;;;;;;;;;1885642;76;20453;-68
2022/11/20 14:45:20;;;;;;;;;;;;;;;;;;1885423;76;20172;-68
2022/11/20 14:47:47;;;;;;;;;;;;;;;;;;1885878;76;20490;-75
2022/11/20 14:50:14;;;;;;;;;;;;;;;;;;1885565;76;20858;-68
2022/11/20 14:52:41;;;;;;;;;;;;;;;;;;1885734;76;20175;-66
2022/11/20 14:55:08;;;;;;;;;;;;;;;;;;1885709;76;20164;-68
2022/11/20 14:57:35;;;;;;;;;;;;;;;;;;1885697;76;20120;-67
2022/11/20 15:00:02;;;;;;;;;;;;;;;;;;1885654;76;20194;-67
2022/11/20 15:02:29;;;;;;;;;;;;;;;;;;1885223;76;20160;-67
2022/11/20 15:04:56;;;;;;;;;;;;;;;;;;1885785;76;20206;-67
2022/11/20 15:07:22;;;;;;;;;;;;;;;;;;1883476;76;20199;-67
2022/11/20 15:09:49;;;;;;;;;;;;;;;;;;1883920;76;20480;-67
2022/11/20 15:12:16;;;;;;;;;;;;;;;;;;1885568;76;20436;-67
2022/11/20 15:14:43;;;;;;;;;;;;;;;;;;1885880;76;20201;-67
2022/11/20 15:17:10;;;;;;;;;;;;;;;;;;1883556;76;20505;-67
2022/11/20 15:19:37;;;;;;;;;;;;;;;;;;1884158;76;20475;-67
2022/11/20 15:22:04;;;;;;;;;;;;;;;;;;1885611;76;20469;-67
2022/11/20 15:24:31;;;;;;;;;;;;;;;;;;1887979;76;20456;-68
2022/11/20 15:26:57;;;;;;;;;;;;;;;;;;1888462;76;20550;-67
2022/11/20 15:29:24;;;;;;;;;;;;;;;;;;1879453;76;20448;-67
2022/11/20 15:31:52;;;;;;;;;;;;;;;;;;1888069;76;20159;-67
2022/11/20 15:34:19;;;;;;;;;;;;;;;;;;1888363;76;20201;-67
2022/11/20 15:36:46;;;;;;;;;;;;;;;;;;1887862;76;20116;-67
2022/11/20 15:39:13;;;;;;;;;;;;;;;;;;1879280;76;20476;-68
2022/11/20 15:41:40;;;;;;;;;;;;;;;;;;1888199;76;20171;-67
2022/11/20 15:44:06;;;;;;;;;;;;;;;;;;1879082;76;20178;-67
2022/11/20 15:46:37;;;;;;;;;;;;;;;;;;1887839;76;20520;-67
2022/11/20 15:49:02;;;;;;;;;;;;;;;;;;1860538;76;20179;-67
2022/11/20 15:51:29;;;;;;;;;;;;;;;;;;1887839;76;20221;-67
2022/11/20 15:53:56;;;;;;;;;;;;;;;;;;1879009;76;20171;-65
2022/11/20 15:56:23;;;;;;;;;;;;;;;;;;1878688;76;20175;-65
2022/11/20 15:58:50;;;;;;;;;;;;;;;;;;1888180;76;20213;-66
2022/11/20 16:01:17;;;;;;;;;;;;;;;;;;1887694;76;20160;-66
2022/11/20 16:03:44;;;;;;;;;;;;;;;;;;1888029;76;20200;-66
2022/11/20 16:06:10;;;;;;;;;;;;;;;;;;1888314;76;20912;-66
2022/11/20 16:08:37;;;;;;;;;;;;;;;;;;1888160;76;20164;-66
2022/11/20 16:11:04;;;;;;;;;;;;;;;;;;1888275;76;20171;-66
2022/11/20 16:16:16;;;;;;;;;;;;;;;;;;1888014;76;20494;-67
2022/11/20 16:18:43;;;;;;;;;;;;;;;;;;1888060;76;20333;-67
2022/11/20 16:21:10;;;;;;;;;;;;;;;;;;1888031;76;20163;-68
2022/11/20 16:23:37;;;;;;;;;;;;;;;;;;1891147;76;20942;-67
2022/11/20 16:26:04;;;;;;;;;;;;;;;;;;1897351;76;20166;-68
2022/11/20 16:28:31;;;;;;;;;;;;;;;;;;1885764;76;20171;-67
2022/11/20 16:30:58;;;;;;;;;;;;;;;;;;1897599;76;20217;-66
2022/11/20 16:33:25;;;;;;;;;;;;;;;;;;1897577;76;20429;-66
2022/11/20 16:35:52;;;;;;;;;;;;;;;;;;1897324;76;20551;-66
2022/11/20 16:38:18;;;;;;;;;;;;;;;;;;1885715;76;20294;-67
2022/11/20 16:40:46;;;;;;;;;;;;;;;;;;1897211;76;20298;-67
2022/11/20 16:43:13;;;;;;;;;;;;;;;;;;1897319;76;20170;-67
2022/11/20 16:45:40;;;;;;;;;;;;;;;;;;1885559;76;20167;-67
2022/11/20 16:48:07;;;;;;;;;;;;;;;;;;1897229;76;20451;-66
2022/11/20 16:50:34;;;;;;;;;;;;;;;;;;1897228;76;20483;-66
2022/11/20 16:53:01;;;;;;;;;;;;;;;;;;1897361;76;20304;-66
2022/11/20 16:55:27;;;;;;;;;;;;;;;;;;1897536;76;20179;-66
2022/11/20 16:57:54;;;;;;;;;;;;;;;;;;1897526;76;20155;-66
2022/11/20 17:00:21;;;;;;;;;;;;;;;;;;1897328;76;20449;-66
2022/11/20 17:02:48;;;;;;;;;;;;;;;;;;1897032;76;20876;-66